Time;durP1;ratioP1;P1;durP2;ratioP2;P2;SDS_P1;SDS_P2;PMS_P1;PMS_P2;Temp;Humidity;BMP_temperature;BMP_pressure;BME280_temperature;BME280_humidity;BME280_pressure;Samples;Min_cycle;Max_cycle;Signal;HPM_P1;HPM_P2
2021/05/29 00:00:54;;;;;;;;;;;;;;;9.51;76.56;102481.78;5053697;28;1237;-81
2021/05/29 00:03:22;;;;;;;;;;;;;;;9.52;77.11;102472.41;5055058;28;1167;-81
2021/05/29 00:05:47;;;;;;;;;;;;;;;9.55;76.62;102471.84;5036364;28;1741;-81
2021/05/29 00:08:13;;;;;;;;;;;;;;;9.55;76.41;102471.84;5055360;28;1871;-82
2021/05/29 00:10:44;;;;;;;;;;;;;;;9.51;77.18;102479.03;5054828;28;936;-81
2021/05/29 00:13:11;;;;;;;;;;;;;;;9.51;77.17;102468.00;5037248;28;1879;-81
2021/05/29 00:15:37;;;;;;;;;;;;;;;9.48;77.07;102474.13;5054022;28;930;-81
2021/05/29 00:18:03;;;;;;;;;;;;;;;9.47;77.00;102472.50;5065289;28;1884;-81
2021/05/29 00:20:29;;;;;;;;;;;;;;;9.48;76.47;102470.53;5073607;28;1179;-82
2021/05/29 00:22:54;;;;;;;;;;;;;;;9.50;76.96;102468.31;5056675;28;1651;-83
2021/05/29 00:25:19;;;;;;;;;;;;;;;9.50;77.10;102471.91;5073974;28;998;-81
2021/05/29 00:27:44;;;;;;;;;;;;;;;9.50;77.25;102462.78;5079719;28;2120;-83
2021/05/29 00:30:11;;;;;;;;;;;;;;;9.50;76.91;102466.38;5053035;28;1258;-82
2021/05/29 00:32:38;;;;;;;;;;;;;;;9.48;76.32;102451.25;5054022;28;1139;-81
2021/05/29 00:35:04;;;;;;;;;;;;;;;9.50;77.10;102451.75;5052879;28;1262;-82
2021/05/29 00:37:30;;;;;;;;;;;;;;;9.47;77.31;102452.38;5052949;28;1982;-82
2021/05/29 00:39:55;;;;;;;;;;;;;;;9.46;77.29;102453.47;5053370;28;1066;-82
2021/05/29 00:42:20;;;;;;;;;;;;;;;9.47;77.26;102458.69;5060174;28;1981;-82
2021/05/29 00:44:51;;;;;;;;;;;;;;;9.44;76.73;102464.81;5073229;28;992;-81
2021/05/29 00:47:26;;;;;;;;;;;;;;;9.44;77.28;102470.31;5066371;28;1938;-82
2021/05/29 00:49:53;;;;;;;;;;;;;;;9.45;76.81;102466.47;5034487;28;1117;-82
2021/05/29 00:52:22;;;;;;;;;;;;;;;9.46;77.21;102453.47;5031142;28;1176;-81
2021/05/29 00:54:53;;;;;;;;;;;;;;;9.44;76.95;102464.81;5035435;28;1173;-81
2021/05/29 00:57:20;;;;;;;;;;;;;;;9.43;77.47;102471.44;5038674;28;1994;-81
2021/05/29 00:59:46;;;;;;;;;;;;;;;9.42;76.80;102472.56;5052304;28;1378;-81
2021/05/29 01:02:14;;;;;;;;;;;;;;;9.40;77.72;102469.28;5052881;28;848;-82
2021/05/29 01:04:39;;;;;;;;;;;;;;;9.40;77.60;102478.34;5053388;28;1011;-81
2021/05/29 01:07:09;;;;;;;;;;;;;;;9.38;78.07;102483.34;5058868;28;1840;-82
2021/05/29 01:09:44;;;;;;;;;;;;;;;9.35;77.44;102489.44;5073259;28;960;-81
2021/05/29 01:12:17;;;;;;;;;;;;;;;9.30;77.06;102489.53;5070768;28;1844;-82
2021/05/29 01:14:50;;;;;;;;;;;;;;;9.31;77.90;102491.16;5073935;28;829;-82
2021/05/29 01:17:15;;;;;;;;;;;;;;;9.33;77.15;102483.41;5047001;28;1892;-82
2021/05/29 01:19:41;;;;;;;;;;;;;;;9.35;77.88;102477.63;5052955;28;873;-81
2021/05/29 01:22:08;;;;;;;;;;;;;;;9.35;77.27;102483.13;5053407;28;1087;-81
2021/05/29 01:24:33;;;;;;;;;;;;;;;9.31;78.22;102476.53;5052635;28;1015;-82
2021/05/29 01:26:59;;;;;;;;;;;;;;;9.30;78.11;102484.00;5071240;28;1929;-81
2021/05/29 01:29:25;;;;;;;;;;;;;;;9.30;77.51;102477.69;5055080;28;1933;-82
2021/05/29 01:32:00;;;;;;;;;;;;;;;9.28;77.26;102469.69;5072587;28;808;-81
2021/05/29 01:34:28;;;;;;;;;;;;;;;9.31;77.75;102471.03;5072901;28;883;-81
2021/05/29 01:36:54;;;;;;;;;;;;;;;9.32;77.64;102472.69;5052150;28;1891;-81
2021/05/29 01:39:20;;;;;;;;;;;;;;;9.31;77.73;102477.38;5065216;28;1900;-82
2021/05/29 01:41:46;;;;;;;;;;;;;;;9.30;77.76;102475.72;5058712;28;1840;-82
2021/05/29 01:44:12;;;;;;;;;;;;;;;9.30;77.35;102470.22;5076291;28;872;-81
2021/05/29 01:46:37;;;;;;;;;;;;;;;9.31;78.25;102468.28;5056332;28;1963;-84
2021/05/29 01:49:02;;;;;;;;;;;;;;;9.32;77.52;102472.69;5054269;28;1945;-81
2021/05/29 01:51:28;;;;;;;;;;;;;;;9.30;77.70;102470.22;5057029;28;995;-82
2021/05/29 01:53:54;;;;;;;;;;;;;;;9.28;77.77;102468.88;5056531;28;958;-84
2021/05/29 01:56:20;;;;;;;;;;;;;;;9.25;76.92;102467.53;5038632;28;1883;-81
2021/05/29 01:58:46;;;;;;;;;;;;;;;9.23;77.18;102473.34;5070614;28;1886;-82
2021/05/29 02:01:14;;;;;;;;;;;;;;;9.22;77.82;102477.22;5074678;28;833;-82
2021/05/29 02:03:41;;;;;;;;;;;;;;;9.26;77.54;102487.63;5059502;28;1222;-81
2021/05/29 02:06:07;;;;;;;;;;;;;;;9.26;77.91;102471.09;5075201;28;2070;-82
2021/05/29 02:08:33;;;;;;;;;;;;;;;9.26;77.67;102479.38;5067975;28;1996;-82
2021/05/29 02:10:59;;;;;;;;;;;;;;;9.27;77.66;102481.84;5055178;28;861;-81
2021/05/29 02:13:28;;;;;;;;;;;;;;;9.28;77.48;102483.47;5068879;28;1916;-81
2021/05/29 02:15:54;;;;;;;;;;;;;;;9.29;77.54;102476.88;5090995;28;1808;-81
2021/05/29 02:18:20;;;;;;;;;;;;;;;9.28;78.17;102486.25;5075217;28;1998;-82
2021/05/29 02:21:02;;;;;;;;;;;;;;;9.28;77.71;102491.75;5075872;28;801;-81
2021/05/29 02:23:31;;;;;;;;;;;;;;;9.27;77.82;102497.56;5075380;28;813;-81
2021/05/29 02:26:03;;;;;;;;;;;;;;;9.25;77.61;102492.34;5058672;28;1832;-82
2021/05/29 02:28:30;;;;;;;;;;;;;;;9.22;77.95;102490.16;5055382;28;2231;-82
2021/05/29 02:30:56;;;;;;;;;;;;;;;9.17;77.91;102495.72;5056680;28;1059;-81
2021/05/29 02:33:22;;;;;;;;;;;;;;;9.20;78.04;102490.47;5039110;28;1380;-83
2021/05/29 02:35:48;;;;;;;;;;;;;;;9.19;77.91;102491.59;5056358;28;1011;-81
2021/05/29 02:38:14;;;;;;;;;;;;;;;9.17;78.11;102490.22;5074241;28;1922;-82
2021/05/29 02:40:40;;;;;;;;;;;;;;;9.17;78.10;102495.72;5058563;28;1560;-82
2021/05/29 02:43:06;;;;;;;;;;;;;;;9.18;77.73;102494.63;5063617;28;1927;-83
2021/05/29 02:45:31;;;;;;;;;;;;;;;9.20;77.81;102493.25;5055862;28;1011;-81
2021/05/29 02:47:57;;;;;;;;;;;;;;;9.20;77.70;102493.25;5069806;28;1902;-82
2021/05/29 02:50:32;;;;;;;;;;;;;;;9.20;77.65;102490.47;5090121;28;1239;-82
2021/05/29 02:52:57;;;;;;;;;;;;;;;9.20;77.62;102493.25;5075900;28;1008;-82
2021/05/29 02:55:23;;;;;;;;;;;;;;;9.19;78.10;102493.53;5075296;28;855;-81
2021/05/29 02:58:00;;;;;;;;;;;;;;;9.17;77.88;102495.72;5065301;28;1919;-81
2021/05/29 03:00:37;;;;;;;;;;;;;;;9.19;77.59;102497.09;5057893;28;1404;-82
2021/05/29 03:03:04;;;;;;;;;;;;;;;9.17;77.65;102498.50;5075797;28;984;-83
2021/05/29 03:05:34;;;;;;;;;;;;;;;9.15;77.10;102501.56;5075720;28;840;-82
2021/05/29 03:07:59;;;;;;;;;;;;;;;9.14;77.95;102505.44;5055976;28;1940;-81
2021/05/29 03:10:28;;;;;;;;;;;;;;;9.16;76.75;102502.38;5073943;28;1158;-82
2021/05/29 03:12:54;;;;;;;;;;;;;;;9.15;78.05;102503.47;5055698;28;1840;-81
2021/05/29 03:15:23;;;;;;;;;;;;;;;9.13;77.63;102502.97;5075381;28;988;-83
2021/05/29 03:17:49;;;;;;;;;;;;;;;9.14;77.26;102508.19;5061134;28;1915;-83
2021/05/29 03:20:17;;;;;;;;;;;;;;;9.16;77.76;102508.72;5064376;28;1884;-81
2021/05/29 03:22:44;;;;;;;;;;;;;;;9.17;76.74;102515.03;5055574;28;988;-82
2021/05/29 03:25:10;;;;;;;;;;;;;;;9.14;77.07;102515.63;5038527;28;1255;-82
2021/05/29 03:27:36;;;;;;;;;;;;;;;9.13;77.01;102511.22;5056961;28;1945;-82
2021/05/29 03:30:08;;;;;;;;;;;;;;;9.14;76.95;102521.16;5060616;28;1868;-81
2021/05/29 03:32:34;;;;;;;;;;;;;;;9.12;76.91;102520.59;5075645;28;967;-82
2021/05/29 03:35:03;;;;;;;;;;;;;;;9.13;77.70;102516.75;5074913;28;1119;-82
2021/05/29 03:37:31;;;;;;;;;;;;;;;9.14;77.31;102524.72;5045614;28;1907;-81
2021/05/29 03:39:57;;;;;;;;;;;;;;;9.16;77.98;102522.47;5055215;28;983;-81
2021/05/29 03:42:22;;;;;;;;;;;;;;;9.16;77.62;102521.66;5039337;28;1868;-83
2021/05/29 03:44:48;;;;;;;;;;;;;;;9.16;77.03;102530.75;5053339;28;1019;-83
2021/05/29 03:47:13;;;;;;;;;;;;;;;9.17;77.23;102523.28;5062958;28;1942;-82
2021/05/29 03:49:39;;;;;;;;;;;;;;;9.19;77.61;102527.41;5074330;28;1273;-82
2021/05/29 03:52:04;;;;;;;;;;;;;;;9.24;77.79;102526.53;5073918;28;1082;-82
2021/05/29 03:54:30;;;;;;;;;;;;;;;9.29;77.63;102528.41;5074935;28;856;-81
2021/05/29 03:56:55;;;;;;;;;;;;;;;9.30;77.11;102530.06;5067028;28;2167;-81
2021/05/29 03:59:21;;;;;;;;;;;;;;;9.31;77.10;102529.75;5073048;28;1323;-82
2021/05/29 04:01:46;;;;;;;;;;;;;;;9.29;77.09;102529.25;5074059;28;875;-81
2021/05/29 04:04:12;;;;;;;;;;;;;;;9.27;76.34;102531.44;5074843;28;912;-82
2021/05/29 04:06:38;;;;;;;;;;;;;;;9.28;76.82;102526.78;5072758;28;1847;-82
2021/05/29 04:09:05;;;;;;;;;;;;;;;9.29;76.66;102528.41;5073645;28;1947;-82
2021/05/29 04:11:31;;;;;;;;;;;;;;;9.31;76.94;102528.91;5074205;28;925;-82
2021/05/29 04:13:56;;;;;;;;;;;;;;;9.33;76.41;102532.22;5053942;28;1910;-82
2021/05/29 04:16:21;;;;;;;;;;;;;;;9.29;76.20;102531.16;5057361;28;1915;-83
2021/05/29 04:18:47;;;;;;;;;;;;;;;9.26;76.28;102529.81;5073343;28;1287;-82
2021/05/29 04:21:13;;;;;;;;;;;;;;;9.32;76.12;102533.34;5074573;28;798;-81
2021/05/29 04:23:38;;;;;;;;;;;;;;;9.35;76.60;102536.31;5074143;28;904;-82
2021/05/29 04:26:07;;;;;;;;;;;;;;;9.40;76.34;102528.00;5073154;28;1875;-82
2021/05/29 04:28:33;;;;;;;;;;;;;;;9.46;77.01;102530.69;5068835;28;1936;-81
2021/05/29 04:30:59;;;;;;;;;;;;;;;9.47;76.09;102538.66;5074355;28;952;-82
2021/05/29 04:33:24;;;;;;;;;;;;;;;9.50;76.02;102529.81;5073985;28;1034;-81
2021/05/29 04:35:50;;;;;;;;;;;;;;;9.54;75.89;102536.34;5073591;28;841;-82
2021/05/29 04:38:18;;;;;;;;;;;;;;;9.59;75.22;102533.53;5040178;28;1939;-82
2021/05/29 04:40:50;;;;;;;;;;;;;;;9.61;75.72;102530.50;5061159;28;1824;-84
2021/05/29 04:43:16;;;;;;;;;;;;;;;9.61;75.67;102527.72;5071653;28;1937;-81
2021/05/29 04:45:41;;;;;;;;;;;;;;;9.64;74.95;102532.66;5078686;28;975;-81
2021/05/29 04:48:08;;;;;;;;;;;;;;;9.65;75.61;102530.72;5077430;28;1951;-81
2021/05/29 04:51:12;;;;;;;;;;;;;;;9.71;75.79;102540.56;5060670;28;1237;-82
2021/05/29 04:53:20;;;;;;;;;;;;;;;9.76;75.40;102537.75;5076634;28;1057;-81
2021/05/29 04:55:45;;;;;;;;;;;;;;;9.76;74.37;102540.50;5077652;28;1003;-81
2021/05/29 04:58:10;;;;;;;;;;;;;;;9.75;73.74;102541.63;5067100;28;1883;-81
2021/05/29 05:00:39;;;;;;;;;;;;;;;9.70;74.71;102548.00;5073214;28;885;-81
2021/05/29 05:03:05;;;;;;;;;;;;;;;9.67;74.84;102529.31;5073702;28;1046;-83
2021/05/29 05:05:30;;;;;;;;;;;;;;;9.68;75.09;102538.41;5073385;28;881;-81
2021/05/29 05:07:59;;;;;;;;;;;;;;;9.74;74.73;102539.97;5072644;28;1871;-81
2021/05/29 05:10:24;;;;;;;;;;;;;;;9.78;74.58;102544.59;5072912;28;1843;-82
2021/05/29 05:12:53;;;;;;;;;;;;;;;9.82;74.28;102541.25;5066895;28;2017;-81
2021/05/29 05:15:18;;;;;;;;;;;;;;;9.87;74.44;102535.66;5057919;28;785;-81
2021/05/29 05:17:44;;;;;;;;;;;;;;;9.92;74.32;102539.16;5056886;28;1197;-82
2021/05/29 05:20:10;;;;;;;;;;;;;;;9.99;74.37;102533.28;5057005;28;928;-81
2021/05/29 05:22:36;;;;;;;;;;;;;;;10.11;73.70;102530.06;5061338;28;1947;-81
2021/05/29 05:25:06;;;;;;;;;;;;;;;10.14;73.44;102532.22;5076808;28;1992;-81
2021/05/29 05:27:32;;;;;;;;;;;;;;;10.11;73.54;102538.34;5067469;28;2155;-81
2021/05/29 05:29:57;;;;;;;;;;;;;;;10.21;73.38;102538.19;5065126;28;1187;-81
2021/05/29 05:32:23;;;;;;;;;;;;;;;10.27;73.20;102545.25;5070033;28;1860;-82
2021/05/29 05:34:49;;;;;;;;;;;;;;;10.29;73.47;102548.53;5068763;28;1953;-81
2021/05/29 05:37:14;;;;;;;;;;;;;;;10.27;72.72;102548.00;5060496;28;1255;-81
2021/05/29 05:39:39;;;;;;;;;;;;;;;10.29;73.24;102545.78;5061058;28;1277;-81
2021/05/29 05:42:05;;;;;;;;;;;;;;;10.25;72.40;102549.44;5064012;28;1883;-81
2021/05/29 05:44:31;;;;;;;;;;;;;;;10.28;72.49;102557.94;5081224;28;1042;-82
2021/05/29 05:46:56;;;;;;;;;;;;;;;10.40;73.35;102552.00;5061660;28;1275;-82
2021/05/29 05:49:21;;;;;;;;;;;;;;;10.56;72.19;102552.56;5070948;28;2069;-82
2021/05/29 05:51:47;;;;;;;;;;;;;;;10.64;71.70;102553.81;5065561;28;1859;-81
2021/05/29 05:54:12;;;;;;;;;;;;;;;10.62;71.76;102556.06;5075631;28;968;-81
2021/05/29 05:56:37;;;;;;;;;;;;;;;10.67;71.72;102556.78;5076192;28;2048;-81
2021/05/29 05:59:03;;;;;;;;;;;;;;;10.81;71.42;102556.81;5056366;28;2033;-82
2021/05/29 06:01:28;;;;;;;;;;;;;;;10.96;70.35;102554.91;5056321;28;778;-82
2021/05/29 06:03:55;;;;;;;;;;;;;;;11.04;70.59;102556.94;5056065;28;855;-82
2021/05/29 06:06:22;;;;;;;;;;;;;;;11.19;70.48;102564.16;5039303;28;1374;-81
2021/05/29 06:08:47;;;;;;;;;;;;;;;11.28;69.13;102562.31;5056072;28;1910;-83
2021/05/29 06:11:13;;;;;;;;;;;;;;;11.29;68.57;102558.41;5058656;28;1877;-81
2021/05/29 06:21:15;;;;;;;;;;;;;;;11.64;67.42;102569.88;5055135;28;967;-82
2021/05/29 06:23:41;;;;;;;;;;;;;;;11.67;67.09;102563.72;5055434;28;833;-81
2021/05/29 06:26:06;;;;;;;;;;;;;;;11.61;67.44;102564.94;5045044;28;1896;-82
2021/05/29 06:28:31;;;;;;;;;;;;;;;11.61;68.03;102571.31;5074335;28;2012;-82
2021/05/29 06:30:57;;;;;;;;;;;;;;;11.76;67.13;102569.34;5054535;28;1381;-81
2021/05/29 06:33:23;;;;;;;;;;;;;;;11.82;67.09;102577.25;5054491;28;1067;-81
2021/05/29 06:35:48;;;;;;;;;;;;;;;11.86;66.86;102580.19;5070711;28;977;-82
2021/05/29 06:38:14;;;;;;;;;;;;;;;11.76;67.21;102584.00;5053526;28;1189;-83
2021/05/29 06:40:39;;;;;;;;;;;;;;;11.91;67.37;102591.19;5054580;28;924;-81
2021/05/29 06:43:05;;;;;;;;;;;;;;;12.06;66.59;102586.44;5056560;28;1954;-81
2021/05/29 06:45:31;;;;;;;;;;;;;;;12.07;66.42;102588.91;5036873;28;1385;-82
2021/05/29 06:47:58;;;;;;;;;;;;;;;12.16;66.55;102595.34;5054067;28;1874;-82
2021/05/29 06:50:23;;;;;;;;;;;;;;;12.18;65.32;102595.03;5055353;28;1110;-83
2021/05/29 06:52:52;;;;;;;;;;;;;;;12.12;66.23;102590.75;5054822;28;1039;-83
2021/05/29 07:00:45;;;;;;;;;;;;;;;12.04;66.38;102604.19;5055812;28;1836;-81
2021/05/29 07:03:11;;;;;;;;;;;;;;;12.16;66.42;102606.44;5056972;28;2026;-81
2021/05/29 07:05:36;;;;;;;;;;;;;;;12.31;66.06;102607.19;5057076;28;1003;-81
2021/05/29 07:08:01;;;;;;;;;;;;;;;12.46;65.65;102614.31;5060785;28;1867;-81
2021/05/29 07:10:27;;;;;;;;;;;;;;;12.49;65.45;102624.78;5043796;28;1039;-77
2021/05/29 07:12:52;;;;;;;;;;;;;;;12.46;65.01;102614.31;5036908;28;1042;-78
2021/05/29 07:15:17;;;;;;;;;;;;;;;12.37;65.21;102615.09;5037158;28;861;-78
2021/05/29 07:17:46;;;;;;;;;;;;;;;12.43;65.19;102610.22;5036625;28;1280;-78
2021/05/29 07:20:12;;;;;;;;;;;;;;;12.47;63.67;102615.97;5036929;28;920;-78
2021/05/29 07:22:37;;;;;;;;;;;;;;;12.53;63.60;102614.72;5036466;28;837;-77
2021/05/29 07:25:07;;;;;;;;;;;;;;;12.55;63.39;102613.25;5036910;28;988;-77
2021/05/29 07:27:33;;;;;;;;;;;;;;;12.53;64.14;102612.75;5042483;28;2250;-78
2021/05/29 07:29:59;;;;;;;;;;;;;;;12.58;64.20;102612.63;5036890;28;1931;-77
2021/05/29 07:32:24;;;;;;;;;;;;;;;12.81;63.77;102617.38;5036609;28;994;-77
2021/05/29 07:34:51;;;;;;;;;;;;;;;13.04;62.92;102607.88;5035889;28;984;-78
2021/05/29 07:37:16;;;;;;;;;;;;;;;13.23;62.26;102618.72;5036606;28;1922;-77
2021/05/29 07:39:41;;;;;;;;;;;;;;;13.39;62.08;102619.16;5043579;28;1954;-82
2021/05/29 07:42:07;;;;;;;;;;;;;;;13.64;61.74;102619.59;5055871;28;1872;-81
2021/05/29 07:44:32;;;;;;;;;;;;;;;13.62;60.72;102619.09;5062096;28;1889;-82
2021/05/29 07:46:57;;;;;;;;;;;;;;;13.53;61.24;102619.88;5073229;28;1256;-82
2021/05/29 07:49:23;;;;;;;;;;;;;;;13.38;62.00;102625.88;5081081;28;1964;-81
2021/05/29 07:51:48;;;;;;;;;;;;;;;13.41;62.24;102621.63;5054462;28;1212;-81
2021/05/29 07:54:14;;;;;;;;;;;;;;;13.41;61.73;102627.16;5072334;28;960;-82
2021/05/29 07:56:39;;;;;;;;;;;;;;;13.57;62.00;102631.16;5069906;28;1918;-83
2021/05/29 07:59:15;;;;;;;;;;;;;;;13.53;60.93;102627.38;5079697;28;1791;-83
2021/05/29 08:01:40;;;;;;;;;;;;;;;13.67;60.76;102635.59;5076030;28;2115;-82
2021/05/29 08:04:06;;;;;;;;;;;;;;;13.62;60.80;102636.56;5052260;28;3315;-81
2021/05/29 08:06:35;;;;;;;;;;;;;;;13.77;60.83;102634.50;5066519;28;3007;-81
2021/05/29 08:09:01;;;;;;;;;;;;;;;13.78;59.56;102636.13;5051004;28;1866;-80
2021/05/29 08:11:26;;;;;;;;;;;;;;;13.86;60.02;102638.94;5070809;28;759;-80
2021/05/29 08:13:54;;;;;;;;;;;;;;;13.70;59.58;102638.56;5070416;28;1034;-82
2021/05/29 08:16:22;;;;;;;;;;;;;;;13.64;60.70;102637.06;5066430;28;3190;-80
2021/05/29 08:18:47;;;;;;;;;;;;;;;13.69;60.02;102647.22;5051982;28;2567;-80
2021/05/29 08:21:13;;;;;;;;;;;;;;;13.49;60.29;102646.63;5032722;28;1501;-81
2021/05/29 08:23:40;;;;;;;;;;;;;;;13.42;60.95;102645.47;5051943;28;1845;-81
2021/05/29 08:26:06;;;;;;;;;;;;;;;13.52;60.60;102642.41;5071598;28;846;-81
2021/05/29 08:28:31;;;;;;;;;;;;;;;13.60;61.11;102646.34;5070620;28;1870;-81
2021/05/29 08:30:56;;;;;;;;;;;;;;;13.65;61.02;102643.44;5053441;28;1349;-81
2021/05/29 08:33:22;;;;;;;;;;;;;;;13.62;60.40;102644.09;5053970;28;1990;-81
2021/05/29 08:35:47;;;;;;;;;;;;;;;13.60;59.96;102638.03;5033592;28;1162;-81
2021/05/29 08:38:13;;;;;;;;;;;;;;;13.47;60.64;102650.88;5043897;28;1946;-81
2021/05/29 08:40:38;;;;;;;;;;;;;;;13.61;60.52;102656.31;5070919;28;1290;-81
2021/05/29 08:43:04;;;;;;;;;;;;;;;13.90;59.69;102653.78;5070738;28;1038;-81
2021/05/29 08:45:29;;;;;;;;;;;;;;;14.07;59.64;102658.56;5071064;28;750;-81
2021/05/29 08:47:57;;;;;;;;;;;;;;;14.54;58.25;102649.63;5074342;28;1998;-82
2021/05/29 08:50:23;;;;;;;;;;;;;;;14.73;57.12;102657.66;5093829;28;1894;-83
2021/05/29 08:52:48;;;;;;;;;;;;;;;14.91;55.94;102660.44;5093628;28;1966;-81
2021/05/29 08:55:16;;;;;;;;;;;;;;;15.15;55.53;102663.47;5076599;28;986;-81
2021/05/29 08:57:42;;;;;;;;;;;;;;;14.99;55.18;102665.16;5074464;28;1276;-81
2021/05/29 09:00:15;;;;;;;;;;;;;;;15.23;56.03;102662.66;5059440;28;924;-81
2021/05/29 09:03:07;;;;;;;;;;;;;;;15.39;54.37;102659.34;5077174;28;879;-81
2021/05/29 09:05:36;;;;;;;;;;;;;;;15.54;53.65;102667.13;5084243;28;1882;-81
2021/05/29 09:08:07;;;;;;;;;;;;;;;15.56;54.34;102664.03;5095997;28;1894;-81
2021/05/29 09:10:36;;;;;;;;;;;;;;;15.40;53.32;102666.56;5096862;28;1018;-81
2021/05/29 09:13:05;;;;;;;;;;;;;;;15.16;54.52;102670.69;5096314;28;812;-81
2021/05/29 09:15:39;;;;;;;;;;;;;;;15.43;54.91;102677.00;5095306;28;2103;-81
2021/05/29 09:18:05;;;;;;;;;;;;;;;15.64;54.08;102667.91;5069667;28;1899;-81
2021/05/29 09:20:30;;;;;;;;;;;;;;;15.24;54.76;102669.03;5055147;28;1063;-81
2021/05/29 09:22:58;;;;;;;;;;;;;;;15.23;54.88;102670.19;5050113;28;1917;-81
2021/05/29 09:25:25;;;;;;;;;;;;;;;15.47;54.17;102668.78;5074362;28;1166;-81
2021/05/29 09:28:07;;;;;;;;;;;;;;;15.73;53.55;102672.28;5058082;28;1894;-82
2021/05/29 09:30:47;;;;;;;;;;;;;;;15.83;52.77;102673.91;5075421;28;801;-82
2021/05/29 09:33:21;;;;;;;;;;;;;;;15.74;53.99;102670.31;5068869;28;844;-81
2021/05/29 09:36:11;;;;;;;;;;;;;;;15.68;53.16;102677.25;5072867;28;1911;-81
2021/05/29 09:38:50;;;;;;;;;;;;;;;15.66;54.13;102679.53;5074394;28;1311;-80
2021/05/29 09:41:30;;;;;;;;;;;;;;;15.61;53.35;102683.34;5074788;28;1061;-81
2021/05/29 09:44:04;;;;;;;;;;;;;;;15.79;53.04;102678.53;5075254;28;908;-81
2021/05/29 09:46:49;;;;;;;;;;;;;;;16.02;53.05;102681.03;5074852;28;914;-81
2021/05/29 09:49:14;;;;;;;;;;;;;;;16.17;52.42;102677.66;5074413;28;1874;-81
2021/05/29 09:51:40;;;;;;;;;;;;;;;16.20;53.05;102682.56;5073895;28;919;-81
2021/05/29 09:54:11;;;;;;;;;;;;;;;16.19;52.89;102688.47;5074150;28;947;-82
2021/05/29 09:56:42;;;;;;;;;;;;;;;16.33;51.61;102680.66;5090464;28;1232;-82
2021/05/29 09:59:10;;;;;;;;;;;;;;;16.27;52.88;102685.63;5048556;28;3677;-82
2021/05/29 10:01:53;;;;;;;;;;;;;;;16.20;52.26;102679.78;5074660;28;1325;-81
2021/05/29 10:04:21;;;;;;;;;;;;;;;16.10;52.14;102680.16;5074607;28;3794;-81
2021/05/29 10:06:55;;;;;;;;;;;;;;;16.24;52.00;102688.25;5074399;28;1058;-81
2021/05/29 10:09:21;;;;;;;;;;;;;;;16.61;51.15;102683.72;5057671;28;1878;-82
2021/05/29 10:11:46;;;;;;;;;;;;;;;17.08;49.78;102685.47;5051956;28;3530;-81
2021/05/29 10:14:12;;;;;;;;;;;;;;;17.70;48.37;102686.41;5061219;28;3852;-81
2021/05/29 10:16:38;;;;;;;;;;;;;;;18.07;47.66;102689.22;5071988;28;1093;-81
2021/05/29 10:19:06;;;;;;;;;;;;;;;18.31;47.16;102688.38;5070703;28;1181;-81
2021/05/29 10:21:32;;;;;;;;;;;;;;;18.48;46.95;102684.47;5073832;28;852;-81
2021/05/29 10:23:59;;;;;;;;;;;;;;;18.54;46.52;102677.44;5073608;28;1114;-81
2021/05/29 10:26:25;;;;;;;;;;;;;;;18.76;46.10;102689.28;5074227;28;817;-81
2021/05/29 10:28:51;;;;;;;;;;;;;;;19.04;44.54;102680.09;5072543;28;1910;-81
2021/05/29 10:31:17;;;;;;;;;;;;;;;19.17;44.87;102682.47;5073673;28;3533;-81
2021/05/29 10:33:45;;;;;;;;;;;;;;;19.34;44.17;102689.72;5075214;28;1015;-81
2021/05/29 10:36:40;;;;;;;;;;;;;;;19.45;44.51;102686.38;5074220;28;932;-81
2021/05/29 10:39:29;;;;;;;;;;;;;;;19.16;44.95;102682.81;5073491;28;1224;-82
2021/05/29 10:42:00;;;;;;;;;;;;;;;19.51;43.78;102684.94;5073018;28;1251;-82
2021/05/29 10:44:29;;;;;;;;;;;;;;;19.69;42.59;102686.22;5072345;28;1390;-82
2021/05/29 10:47:28;;;;;;;;;;;;;;;20.30;42.30;102670.03;5052033;28;1175;-82
2021/05/29 10:49:57;;;;;;;;;;;;;;;20.80;39.85;102679.53;5047451;28;1341;-82
2021/05/29 10:55:09;;;;;;;;;;;;;;;20.87;39.44;102678.03;5070634;28;3131;-81
2021/05/29 10:57:55;;;;;;;;;;;;;;;20.59;41.04;102681.84;5060258;28;3763;-81
2021/05/29 11:00:40;;;;;;;;;;;;;;;20.98;39.55;102681.88;5055265;28;1653;-82
2021/05/29 11:03:18;;;;;;;;;;;;;;;20.94;39.63;102673.38;5070939;28;3834;-83
2021/05/29 11:05:44;;;;;;;;;;;;;;;23.06;36.28;102670.16;5072766;28;880;-82
2021/05/29 11:08:45;;;;;;;;;;;;;;;24.98;34.10;102664.56;5071031;28;1988;-82
2021/05/29 11:11:35;;;;;;;;;;;;;;;29.49;26.46;102647.53;5063063;28;1301;-82
2021/05/29 11:14:04;;;;;;;;;;;;;;;31.00;24.21;102657.97;5073663;28;1094;-82
2021/05/29 11:16:48;;;;;;;;;;;;;;;30.08;24.15;102654.59;5072810;28;3206;-81
2021/05/29 11:19:25;;;;;;;;;;;;;;;27.51;27.71;102664.25;5047052;28;1395;-82
2021/05/29 11:22:11;;;;;;;;;;;;;;;25.82;30.17;102664.22;5046934;28;861;-81
2021/05/29 11:24:43;;;;;;;;;;;;;;;25.07;30.92;102664.97;5058384;28;1370;-81
2021/05/29 11:27:18;;;;;;;;;;;;;;;24.89;31.52;102662.91;5071029;28;1351;-82
2021/05/29 11:29:47;;;;;;;;;;;;;;;24.61;31.66;102662.84;5072880;28;1867;-82
2021/05/29 11:32:12;;;;;;;;;;;;;;;24.88;32.77;102666.97;5068551;28;1789;-82
2021/05/29 11:34:42;;;;;;;;;;;;;;;24.60;31.21;102659.19;5074653;28;3599;-82
2021/05/29 11:37:14;;;;;;;;;;;;;;;25.07;31.00;102659.31;5072882;28;1212;-81
2021/05/29 11:39:50;;;;;;;;;;;;;;;28.38;27.39;102652.81;5059870;28;3739;-82
2021/05/29 11:42:15;;;;;;;;;;;;;;;27.67;27.55;102657.19;5061323;28;1278;-84
2021/05/29 11:44:41;;;;;;;;;;;;;;;26.50;28.60;102643.41;5071535;28;1003;-82
2021/05/29 11:47:17;;;;;;;;;;;;;;;26.07;29.89;102659.31;5066119;28;1320;-82
2021/05/29 11:49:43;;;;;;;;;;;;;;;28.86;27.09;102648.09;5061096;28;1961;-82
2021/05/29 11:52:09;;;;;;;;;;;;;;;32.21;21.81;102641.75;5087139;28;3750;-83
2021/05/29 11:54:40;;;;;;;;;;;;;;;33.23;19.93;102634.53;5070353;28;983;-83
2021/05/29 11:57:06;;;;;;;;;;;;;;;32.21;21.15;102653.19;5068375;28;1244;-83
2021/05/29 11:59:32;;;;;;;;;;;;;;;29.80;23.94;102656.75;5069564;28;865;-82
2021/05/29 12:01:58;;;;;;;;;;;;;;;27.16;28.10;102674.59;5050540;28;1203;-82
2021/05/29 12:04:26;;;;;;;;;;;;;;;24.98;30.06;102673.03;5067270;28;968;-82
2021/05/29 12:06:55;;;;;;;;;;;;;;;25.87;29.06;102664.59;5064526;28;2915;-82
2021/05/29 12:09:38;;;;;;;;;;;;;;;27.17;28.31;102664.88;5049039;28;1867;-83
2021/05/29 12:12:09;;;;;;;;;;;;;;;28.16;26.56;102654.31;5062243;28;2059;-82
2021/05/29 12:14:36;;;;;;;;;;;;;;;28.83;25.86;102649.00;5067337;28;1414;-83
2021/05/29 12:17:12;;;;;;;;;;;;;;;31.32;22.86;102648.63;5069779;28;1272;-82
2021/05/29 12:19:50;;;;;;;;;;;;;;;32.09;22.70;102654.75;5069096;28;809;-83
2021/05/29 12:22:24;;;;;;;;;;;;;;;29.89;23.65;102638.31;5067338;28;2079;-83
2021/05/29 12:24:59;;;;;;;;;;;;;;;30.89;23.22;102646.78;5068473;28;895;-84
2021/05/29 12:27:27;;;;;;;;;;;;;;;31.56;22.40;102634.16;5067078;28;1875;-83
2021/05/29 12:30:06;;;;;;;;;;;;;;;29.44;23.56;102648.03;5050917;28;988;-83
2021/05/29 12:32:38;;;;;;;;;;;;;;;27.45;27.76;102653.78;5068755;28;2062;-84
2021/05/29 12:35:09;;;;;;;;;;;;;;;25.75;29.56;102655.72;5069694;28;899;-83
2021/05/29 12:37:36;;;;;;;;;;;;;;;27.16;27.23;102651.13;5047657;28;1897;-82
2021/05/29 12:40:02;;;;;;;;;;;;;;;25.97;28.72;102656.53;5050147;28;816;-83
2021/05/29 12:42:43;;;;;;;;;;;;;;;27.44;27.92;102652.94;5056610;28;2143;-82
2021/05/29 12:45:29;;;;;;;;;;;;;;;29.65;24.45;102644.00;5064565;28;2082;-82
2021/05/29 12:47:54;;;;;;;;;;;;;;;30.67;22.39;102647.25;5068183;28;2152;-82
2021/05/29 12:50:22;;;;;;;;;;;;;;;31.10;22.45;102634.06;5068474;28;797;-82
2021/05/29 12:52:48;;;;;;;;;;;;;;;31.43;22.50;102636.91;5068349;28;2058;-84
2021/05/29 12:55:25;;;;;;;;;;;;;;;30.78;23.01;102637.66;5069399;28;1539;-82
2021/05/29 12:57:51;;;;;;;;;;;;;;;31.25;23.19;102641.03;5066950;28;1928;-83
2021/05/29 13:00:47;;;;;;;;;;;;;;;30.30;23.42;102639.91;5067823;28;1830;-83
2021/05/29 13:09:03;;;;;;;;;;;;;;;22.98;33.69;102669.25;5068980;28;1927;-82
2021/05/29 13:11:31;;;;;;;;;;;;;;;24.69;30.75;102665.28;5051467;28;1587;-81
2021/05/29 13:13:58;;;;;;;;;;;;;;;24.25;32.12;102673.94;5068690;28;2047;-82
2021/05/29 13:16:23;;;;;;;;;;;;;;;22.72;33.06;102675.81;5050443;28;1863;-82
2021/05/29 13:19:00;;;;;;;;;;;;;;;23.02;34.79;102670.09;5068603;28;2172;-82
2021/05/29 13:21:25;;;;;;;;;;;;;;;23.95;34.81;102667.31;5069554;28;1733;-82